首页
METAR-TAF:

METAR-TAF

机场 :

杜魯斯, 明尼蘇達州, 美国

纬度: 46-50-34N, 经度: 092-13-34W, 海拔: 435米

当前天气观测

该预报发布于27分钟前的04:28 UTC
风速17节,风向西南,有时为25节阵风
温度 7°C
湿度 76%
气压 1002 hPa
能見度: 16.1公里
多云层高于2800英尺

METAR: KDLH 250428Z 22017G25KT 10SM BKN028 07/03 A2960 RMK AO2 T00720033

时间: 23:55 (04:55 UTC)

预报

该预报发布于2小时和6分钟前的02:49 UTC
预报有效从25日的 03点(UTC)到 25日的 24点(UTC)
风速9节,风向西南,有时为22节阵风
能見度: 10公里
散云层高于2500英尺
多云层高于5000英尺
短暂存在
从 25日的 03点(UTC)到 25日的 04点(UTC)
风速8节,风向南转南东
从 25日的 0500点(UTC)
风速13节,风向西南,有时为22节阵风
能見度: 10公里
阴天层高于1500英尺
从 25日的 1100点(UTC)
风速13节,风向西转西南,有时为20节阵风
能見度: 10公里
散云层高于1800英尺
从 25日的 1500点(UTC)
风速14节,风向西转西南,有时为23节阵风
能見度: 10公里
散云层高于6000英尺

TAF: KDLH 250249Z 2503/2524 22009G22KT P6SM SCT025 BKN050 TEMPO 2503/2504 15008KT FM250500 22013G22KT P6SM OVC015 FM251100 25013G20KT P6SM SCT018 FM251500 25014G23KT P6SM SCT060

超过4000个机场的气象观测和天气预报(METAR&TAF报告)。

可查询的气象台以黄色和红色小点在地图上表示。

将鼠标移到小点上方,可查看气象台名称。

然后点击查看天气观测和预报。

如需切换地图:点击带黑十字的绿色按钮放大地图;点击带横线的绿色按钮缩小地图;或者点击绿色箭头查看邻近地区的地图。


METAR-TAF: